ADDS METAR Data INFO
IDs: Format: Raw Decoded Include TAF

Data at: 0227 UTC 26 Jul 2017

KSGR 260153Z 15008KT 10SM CLR 29/25 A3007 RMK AO2 SLP182 T02940250
KSGR 260053Z 14010KT 10SM CLR 31/24 A3005 RMK AO2 SLP175 T03110239
KSGR 252353Z 16009KT 10SM FEW037 SCT045 32/24 A3004 RMK AO2 SLP174 T03170244 10339 20311 55008
KSGR 252336Z 16013KT 10SM SCT037 BKN045 32/24 A3004 RMK AO2 T03170244
KSGR 252322Z 15010KT 10SM VCTS CLR 32/24 A3004 RMK AO2 T03170244
KSGR 252253Z 16016KT 10SM SCT034 32/25 A3004 RMK AO2 LTG DSNT SW AND W SLP172 T03220250
KSGR 252153Z 15008KT 10SM CLR 32/24 A3005 RMK AO2 SLP175 T03220244
KSGR 252053Z 15012G15KT 10SM FEW035 32/25 A3007 RMK AO2 SLP182 T03220250 58012
KSGR 251953Z 17010KT 10SM FEW037 34/25 A3008 RMK AO2 SLP186 T03390250
KSGR 251853Z 16010KT 130V220 10SM FEW040 34/24 A3009 RMK AO2 SLP189 T03390239
KSGR 251753Z 17012KT 10SM CLR 32/24 A3010 RMK AO2 SLP193 T03220244 10328 20261 58003
KSGR 251653Z 17011KT 10SM FEW026 FEW032 32/24 A3010 RMK AO2 SLP194 T03220244
KSGR 251553Z 17006KT 10SM CLR 31/25 A3011 RMK AO2 SLP198 T03110250
KSGR 251453Z 16008KT 10SM CLR 29/25 A3011 RMK AO2 SLP197 T02940250 51015
KSGR 251353Z 16005KT 10SM BKN130 28/24 A3010 RMK AO2 SLP194 T02830244
KSGR 251253Z 16004KT 10SM CLR 27/24 A3008 RMK AO2 SLP188 T02720244
KSGR 251153Z 17004KT 10SM CLR 26/24 A3007 RMK AO2 SLP182 T02610244 10267 20261 53009
KSGR 251053Z 17003KT 10SM CLR 26/24 A3005 RMK AO2 SLP177 T02610239
KSGR 250953Z AUTO 17004KT 10SM CLR 27/24 A3005 RMK AO2 SLP176 T02670239
KSGR 250853Z AUTO 18005KT 10SM CLR 27/24 A3004 RMK AO2 SLP173 T02670239 52001
KSGR 250753Z AUTO 16006KT 10SM CLR 27/24 A3004 RMK AO2 SLP172 T02670244
KSGR 250653Z AUTO 17004KT 10SM CLR 27/24 A3004 RMK AO2 SLP172 T02670244
KSGR 250553Z AUTO 17005KT 10SM CLR 26/24 A3004 RMK AO2 SLP172 T02610239 10317 20261 403560250 51014
KSGR 250453Z AUTO 17005KT 10SM CLR 27/24 A3003 RMK AO2 SLP168 T02670239
KSGR 250353Z AUTO 16007KT 10SM CLR 27/24 A3001 RMK AO2 SLP163 T02720239
KSGR 250253Z AUTO 16007KT 10SM CLR 28/24 A3000 RMK AO2 SLP158 T02780239 53011
KSGR 250153Z 17008KT 10SM CLR 28/23 A2998 RMK AO2 SLP152 T02830233
KSGR 250053Z 18009KT 10SM CLR 31/23 A2997 RMK AO2 SLP149 T03060228
KSGR 242353Z 17015KT 10SM CLR 32/22 A2996 RMK AO2 SLP147 T03170222 10356 20317 53005
KSGR 242253Z 20013G17KT 10SM CLR 34/19 A2996 RMK AO2 SLP144 T03390189
KSGR 242153Z 21007KT 10SM CLR 35/18 A2995 RMK AO2 SLP141 T03500183
KSGR 242053Z 21010KT 10SM CLR 35/21 A2995 RMK AO2 SLP141 T03500211 58019
KSGR 241953Z 20010KT 10SM FEW055 35/22 A2997 RMK AO2 SLP148 T03500217
KSGR 241853Z 21008KT 10SM CLR 34/22 A2998 RMK AO2 SLP154 T03390222
KSGR 241753Z 21013KT 10SM FEW048 34/21 A3000 RMK AO2 SLP160 T03390211 10339 20267 50000
KSGR 241653Z 21009KT 10SM CLR 33/23 A3001 RMK AO2 SLP163 T03280228
KSGR 241553Z 20012KT 10SM FEW029 32/24 A3001 RMK AO2 SLP161 T03170239
KSGR 241453Z 20007KT 10SM SCT022 BKN030 31/25 A3000 RMK AO2 SLP160 T03060250 51015